createdAt,value
2023-03-22T00:00:17.696Z,5.53
2023-03-22T00:01:59.058Z,5.71
2023-03-22T00:03:40.386Z,5.38
2023-03-22T00:05:21.714Z,5.46
2023-03-22T00:07:03.008Z,5.33
2023-03-22T00:08:44.331Z,5.40
2023-03-22T00:10:25.639Z,5.15
2023-03-22T00:12:06.914Z,4.80
2023-03-22T00:13:48.239Z,4.66
2023-03-22T00:15:29.531Z,4.56
2023-03-22T00:17:10.818Z,4.95
2023-03-22T00:18:52.115Z,5.40
2023-03-22T00:20:33.382Z,5.12
2023-03-22T00:22:14.705Z,5.02
2023-03-22T00:23:56.044Z,4.08
2023-03-22T00:25:37.336Z,3.87
2023-03-22T00:27:18.729Z,4.02
2023-03-22T00:29:00.018Z,3.93
2023-03-22T00:30:41.335Z,3.55
2023-03-22T00:32:22.707Z,3.30
2023-03-22T00:34:03.974Z,3.90
2023-03-22T00:35:45.328Z,4.00
2023-03-22T00:37:26.653Z,4.12
2023-03-22T00:39:07.962Z,4.19
2023-03-22T00:40:49.262Z,3.94
2023-03-22T00:42:30.560Z,4.17
2023-03-22T00:44:11.857Z,4.33
2023-03-22T00:45:53.178Z,3.98
2023-03-22T00:47:34.496Z,4.21
2023-03-22T00:49:15.769Z,4.19
2023-03-22T00:50:57.054Z,4.18
2023-03-22T00:52:38.392Z,4.47
2023-03-22T00:54:19.687Z,4.54
2023-03-22T00:56:00.976Z,4.40
2023-03-22T00:57:42.284Z,4.16
2023-03-22T00:59:23.651Z,3.79
2023-03-22T01:01:04.967Z,3.56
2023-03-22T01:02:46.295Z,3.58
2023-03-22T01:04:27.583Z,3.43
2023-03-22T01:06:08.855Z,3.25
2023-03-22T01:07:50.153Z,3.10
2023-03-22T01:09:31.458Z,3.04
2023-03-22T01:11:12.778Z,3.43
2023-03-22T01:12:54.085Z,3.53
2023-03-22T01:14:35.416Z,3.55
2023-03-22T01:16:16.808Z,3.84
2023-03-22T01:17:58.112Z,3.66
2023-03-22T01:19:39.398Z,3.69
2023-03-22T01:21:20.695Z,3.59
2023-03-22T01:23:01.982Z,3.58
2023-03-22T01:24:43.303Z,3.77
2023-03-22T01:26:24.629Z,4.07
2023-03-22T01:28:05.946Z,3.98
2023-03-22T01:29:47.293Z,3.95
2023-03-22T01:31:28.594Z,3.59
2023-03-22T01:33:09.869Z,3.43
2023-03-22T01:34:51.154Z,3.57
2023-03-22T01:36:32.418Z,3.83
2023-03-22T01:38:13.702Z,3.68
2023-03-22T01:39:54.980Z,3.96
2023-03-22T01:41:36.257Z,4.16
2023-03-22T01:43:17.587Z,4.12
2023-03-22T01:44:58.866Z,4.10
2023-03-22T01:46:40.263Z,4.23
2023-03-22T01:48:21.618Z,4.40
2023-03-22T01:50:02.882Z,3.92
2023-03-22T01:51:44.153Z,4.15
2023-03-22T01:53:25.630Z,4.36
2023-03-22T01:55:06.945Z,4.44
2023-03-22T01:56:48.217Z,4.65
2023-03-22T01:58:29.541Z,4.78
2023-03-22T02:00:10.816Z,4.53
2023-03-22T02:01:52.065Z,3.95
2023-03-22T02:03:33.347Z,3.30
2023-03-22T02:05:14.620Z,3.01
2023-03-22T02:06:55.890Z,3.44
2023-03-22T02:08:37.164Z,3.41
2023-03-22T02:10:18.449Z,3.19
2023-03-22T02:11:59.741Z,3.64
2023-03-22T02:13:41.009Z,3.68
2023-03-22T02:15:22.289Z,3.89
2023-03-22T02:17:03.593Z,3.09
2023-03-22T02:18:44.878Z,2.60
2023-03-22T02:20:26.185Z,2.99
2023-03-22T02:22:07.480Z,2.97
2023-03-22T02:23:48.814Z,3.40
2023-03-22T02:25:30.105Z,3.54
2023-03-22T02:27:11.378Z,3.83
2023-03-22T02:28:52.700Z,3.57
2023-03-22T02:30:33.980Z,3.77
2023-03-22T02:32:15.256Z,3.81
2023-03-22T02:33:56.624Z,4.03
2023-03-22T02:35:37.916Z,3.96
2023-03-22T02:37:19.268Z,4.23
2023-03-22T02:39:00.598Z,4.16
2023-03-22T02:40:41.961Z,4.42
2023-03-22T02:42:23.231Z,4.58
2023-03-22T02:44:04.531Z,4.87
2023-03-22T02:45:45.811Z,4.44
2023-03-22T02:47:27.106Z,4.13
2023-03-22T02:49:08.403Z,4.02
2023-03-22T02:50:49.672Z,4.31
2023-03-22T02:52:30.983Z,4.11
2023-03-22T02:54:12.359Z,4.49
2023-03-22T02:55:53.702Z,4.86
2023-03-22T02:57:34.965Z,5.14
2023-03-22T02:59:16.237Z,5.25
2023-03-22T03:00:57.568Z,5.49
2023-03-22T03:02:38.887Z,5.61
2023-03-22T03:04:20.200Z,5.73
2023-03-22T03:06:01.488Z,5.46
2023-03-22T03:07:42.829Z,5.05
2023-03-22T03:09:24.179Z,3.86
2023-03-22T03:11:05.508Z,3.90
2023-03-22T03:12:46.803Z,4.38
2023-03-22T03:14:28.102Z,4.20
2023-03-22T03:16:09.434Z,3.80
2023-03-22T03:17:50.764Z,3.74
2023-03-22T03:19:32.305Z,3.29
2023-03-22T03:21:13.594Z,3.70
2023-03-22T03:22:54.876Z,3.79
2023-03-22T03:24:36.173Z,3.81
2023-03-22T03:26:17.471Z,3.30
2023-03-22T03:27:58.825Z,3.63
2023-03-22T03:29:40.188Z,3.16
2023-03-22T03:31:21.508Z,3.15
2023-03-22T03:33:02.835Z,3.31
2023-03-22T03:34:44.158Z,3.27
2023-03-22T03:36:25.426Z,3.78
2023-03-22T03:38:06.721Z,3.62
2023-03-22T03:39:48.034Z,4.25
2023-03-22T03:41:29.328Z,4.67
2023-03-22T03:43:10.613Z,4.73
2023-03-22T03:44:51.916Z,4.34
2023-03-22T03:46:33.210Z,3.98
2023-03-22T03:48:14.518Z,3.94
2023-03-22T03:49:55.829Z,3.75
2023-03-22T03:51:37.102Z,3.97
2023-03-22T03:53:18.418Z,4.27
2023-03-22T03:54:59.768Z,4.70
2023-03-22T03:56:41.077Z,4.46
2023-03-22T03:58:22.391Z,4.82
2023-03-22T04:00:03.674Z,5.00
2023-03-22T04:01:44.984Z,5.20
2023-03-22T04:03:26.285Z,5.40
2023-03-22T04:05:07.850Z,5.51
2023-03-22T04:06:49.156Z,4.43
2023-03-22T04:08:30.481Z,3.93
2023-03-22T04:10:11.778Z,3.98
2023-03-22T04:11:53.074Z,4.12
2023-03-22T04:13:34.393Z,4.40
2023-03-22T04:15:15.705Z,4.34
2023-03-22T04:16:57.121Z,3.96
2023-03-22T04:18:38.426Z,4.01
2023-03-22T04:20:19.750Z,3.85
2023-03-22T04:22:01.031Z,3.22
2023-03-22T04:23:42.297Z,2.64
2023-03-22T04:25:23.581Z,2.58
2023-03-22T04:27:04.901Z,2.89
2023-03-22T04:28:46.172Z,3.17
2023-03-22T04:30:27.503Z,3.55
2023-03-22T04:32:08.862Z,3.55
2023-03-22T04:33:50.156Z,2.78
2023-03-22T04:35:31.494Z,2.14
2023-03-22T04:37:12.777Z,2.41
2023-03-22T04:38:54.054Z,2.94
2023-03-22T04:40:35.377Z,3.46
2023-03-22T04:42:16.809Z,3.64
2023-03-22T04:43:58.160Z,3.46
2023-03-22T04:45:39.489Z,3.54
2023-03-22T04:47:20.796Z,3.36
2023-03-22T04:49:02.119Z,3.17
2023-03-22T04:50:43.419Z,2.76
2023-03-22T04:52:24.718Z,2.30
2023-03-22T04:54:06.022Z,2.76
2023-03-22T04:55:47.351Z,2.89
2023-03-22T04:57:28.652Z,3.10
2023-03-22T04:59:09.950Z,2.90
2023-03-22T05:00:51.303Z,2.68
2023-03-22T05:02:32.636Z,2.74
2023-03-22T05:04:13.955Z,2.77
2023-03-22T05:05:55.271Z,2.50
2023-03-22T05:07:36.581Z,2.63
2023-03-22T05:09:17.902Z,2.78
2023-03-22T05:10:59.215Z,2.86
2023-03-22T05:12:40.517Z,3.40
2023-03-22T05:14:21.893Z,3.66
2023-03-22T05:16:03.306Z,3.43
2023-03-22T05:17:44.599Z,3.20
2023-03-22T05:19:25.937Z,2.60
2023-03-22T05:21:07.248Z,2.38
2023-03-22T05:22:48.540Z,2.44
2023-03-22T05:24:29.843Z,2.58
2023-03-22T05:26:11.185Z,2.54
2023-03-22T05:27:52.476Z,2.77
2023-03-22T05:29:33.750Z,3.09
2023-03-22T05:31:15.163Z,3.29
2023-03-22T05:32:56.506Z,3.74
2023-03-22T05:34:37.877Z,3.89
2023-03-22T05:36:19.148Z,4.29
2023-03-22T05:38:00.442Z,4.60
2023-03-22T05:39:41.736Z,4.54
2023-03-22T05:41:23.035Z,4.06
2023-03-22T05:43:04.299Z,3.12
2023-03-22T05:44:45.599Z,2.75
2023-03-22T05:46:27.003Z,2.81
2023-03-22T05:48:08.408Z,2.76
2023-03-22T05:49:49.927Z,2.53
2023-03-22T05:51:31.266Z,2.76
2023-03-22T05:53:12.570Z,3.03
2023-03-22T05:54:53.927Z,2.67
2023-03-22T05:56:35.238Z,2.25
2023-03-22T05:58:16.586Z,2.23
2023-03-22T05:59:57.853Z,2.36
2023-03-22T06:01:39.283Z,2.07
2023-03-22T06:03:20.729Z,2.31
2023-03-22T06:05:02.127Z,2.42
2023-03-22T06:06:43.421Z,2.53
2023-03-22T06:08:26.528Z,2.75
2023-03-22T06:10:08.008Z,3.11
2023-03-22T06:11:49.282Z,2.60
2023-03-22T06:13:30.623Z,2.61
2023-03-22T06:15:11.950Z,2.27
2023-03-22T06:16:53.256Z,2.18
2023-03-22T06:18:34.665Z,2.35
2023-03-22T06:20:15.982Z,2.31
2023-03-22T06:21:57.258Z,2.35
2023-03-22T06:23:38.613Z,2.20
2023-03-22T06:25:19.906Z,2.22
2023-03-22T06:27:01.198Z,2.26
2023-03-22T06:28:42.521Z,2.15
2023-03-22T06:30:23.869Z,1.79
2023-03-22T06:32:05.225Z,1.84
2023-03-22T06:33:46.527Z,1.84
2023-03-22T06:35:27.953Z,2.05
2023-03-22T06:37:09.281Z,2.17
2023-03-22T06:38:50.635Z,1.86
2023-03-22T06:40:32.014Z,1.86
2023-03-22T06:42:13.325Z,2.00
2023-03-22T06:43:54.609Z,2.01
2023-03-22T06:45:35.910Z,2.05
2023-03-22T06:47:17.240Z,1.93
2023-03-22T06:48:58.525Z,2.16
2023-03-22T06:50:41.827Z,2.41
2023-03-22T06:52:26.268Z,2.33
2023-03-22T06:54:07.566Z,2.39
2023-03-22T06:55:48.866Z,2.71
2023-03-22T06:57:30.205Z,2.38
2023-03-22T06:59:11.633Z,2.58
2023-03-22T07:00:52.958Z,3.07
2023-03-22T07:02:34.256Z,3.22
2023-03-22T07:04:15.605Z,3.37
2023-03-22T07:05:56.940Z,3.00
2023-03-22T07:07:38.256Z,3.01
2023-03-22T07:09:19.617Z,2.99
2023-03-22T07:11:00.972Z,2.88
2023-03-22T07:12:42.434Z,3.06
2023-03-22T07:14:23.903Z,3.14
2023-03-22T07:16:05.301Z,3.35
2023-03-22T07:17:46.658Z,3.45
2023-03-22T07:19:27.950Z,3.32
2023-03-22T07:21:09.262Z,3.36
2023-03-22T07:22:50.540Z,3.40
2023-03-22T07:24:31.824Z,3.78
2023-03-22T07:26:13.138Z,3.43
2023-03-22T07:27:54.421Z,3.28
2023-03-22T07:29:35.723Z,3.38
2023-03-22T07:31:17.053Z,3.69
2023-03-22T07:32:58.328Z,4.02
2023-03-22T07:34:39.595Z,4.15
2023-03-22T07:36:20.922Z,4.12
2023-03-22T07:38:02.207Z,4.47
2023-03-22T07:39:43.518Z,4.75
2023-03-22T07:41:24.826Z,4.96
2023-03-22T07:43:06.112Z,4.56
2023-03-22T07:44:47.527Z,4.38
2023-03-22T07:46:28.978Z,4.14
2023-03-22T07:48:10.371Z,3.98
2023-03-22T07:49:51.747Z,4.07
2023-03-22T07:51:33.043Z,3.91
2023-03-22T07:53:14.332Z,4.09
2023-03-22T07:54:55.646Z,4.26
2023-03-22T07:56:36.938Z,4.31
2023-03-22T07:58:18.234Z,4.48
2023-03-22T07:59:59.562Z,4.78
2023-03-22T08:01:40.964Z,4.87
2023-03-22T08:03:22.434Z,5.09
2023-03-22T08:05:03.738Z,5.01
2023-03-22T08:06:45.038Z,4.54
2023-03-22T08:08:26.375Z,4.20
2023-03-22T08:10:07.667Z,3.75
2023-03-22T08:11:48.981Z,3.88
2023-03-22T08:13:30.264Z,4.10
2023-03-22T08:15:11.558Z,4.44
2023-03-22T08:16:52.874Z,4.59
2023-03-22T08:18:34.146Z,4.68
2023-03-22T08:20:15.413Z,4.81
2023-03-22T08:21:56.743Z,4.86
2023-03-22T08:23:42.147Z,4.63
2023-03-22T08:25:23.763Z,4.47
2023-03-22T08:27:05.091Z,4.45
2023-03-22T08:28:46.368Z,4.44
2023-03-22T08:30:27.728Z,4.54
2023-03-22T08:32:09.071Z,4.69
2023-03-22T08:33:50.421Z,4.96
2023-03-22T08:35:31.793Z,5.39
2023-03-22T08:37:13.108Z,5.62
2023-03-22T08:38:54.386Z,6.25
2023-03-22T08:40:35.721Z,7.00
2023-03-22T08:42:17.120Z,7.50
2023-03-22T08:43:58.428Z,7.96
2023-03-22T08:45:40.042Z,8.73
2023-03-22T08:47:21.698Z,9.36
2023-03-22T08:49:03.076Z,9.91
2023-03-22T08:50:44.447Z,10.07
2023-03-22T08:52:25.811Z,9.87
2023-03-22T08:54:07.093Z,10.54
2023-03-22T08:55:48.432Z,10.71
2023-03-22T08:57:29.761Z,10.64
2023-03-22T08:59:11.052Z,10.39
2023-03-22T09:00:52.566Z,10.47
2023-03-22T09:02:33.986Z,10.97
2023-03-22T09:04:15.294Z,11.35
2023-03-22T09:05:56.708Z,11.84
2023-03-22T09:07:38.040Z,11.93
2023-03-22T09:09:19.308Z,12.24
2023-03-22T09:11:00.671Z,12.45
2023-03-22T09:12:41.999Z,12.90
2023-03-22T09:14:23.291Z,13.33
2023-03-22T09:16:04.669Z,13.99
2023-03-22T09:17:45.990Z,13.76
2023-03-22T09:19:27.283Z,13.93
2023-03-22T09:21:08.604Z,14.11
2023-03-22T09:22:49.953Z,14.74
2023-03-22T09:24:31.263Z,14.92
2023-03-22T09:26:12.600Z,14.78
2023-03-22T09:27:54.057Z,15.22
2023-03-22T09:29:35.327Z,15.48
2023-03-22T09:31:19.120Z,15.42
2023-03-22T09:33:01.569Z,16.01
2023-03-22T09:34:42.864Z,16.29
2023-03-22T09:36:24.162Z,16.89
2023-03-22T09:38:05.477Z,16.94
2023-03-22T09:39:46.821Z,17.12
2023-03-22T09:41:28.117Z,17.43
2023-03-22T09:43:09.440Z,17.25
2023-03-22T09:44:50.750Z,17.06
2023-03-22T09:46:32.127Z,17.12
2023-03-22T09:48:13.490Z,17.00
2023-03-22T09:49:54.814Z,17.28
2023-03-22T09:51:36.147Z,17.11
2023-03-22T09:53:17.435Z,17.23
2023-03-22T09:54:58.730Z,17.24
2023-03-22T09:56:40.062Z,16.57
2023-03-22T09:58:21.356Z,15.63
2023-03-22T10:00:02.678Z,15.77
2023-03-22T10:01:44.161Z,16.08
2023-03-22T10:03:25.642Z,16.32
2023-03-22T10:05:07.007Z,16.62
2023-03-22T10:06:48.307Z,16.84
2023-03-22T10:08:29.612Z,16.16
2023-03-22T10:10:10.898Z,15.69
2023-03-22T10:11:52.228Z,16.21
2023-03-22T10:13:33.535Z,16.37
2023-03-22T10:15:14.959Z,16.42
2023-03-22T10:16:56.608Z,16.55
2023-03-22T10:18:38.028Z,16.95
2023-03-22T10:20:19.336Z,17.23
2023-03-22T10:22:00.675Z,17.32
2023-03-22T10:23:44.019Z,17.32
2023-03-22T10:25:25.468Z,17.51
2023-03-22T10:27:06.794Z,17.72
2023-03-22T10:28:48.167Z,16.79
2023-03-22T10:30:29.453Z,17.06
2023-03-22T10:32:10.785Z,17.37
2023-03-22T10:33:52.036Z,17.70
2023-03-22T10:35:33.362Z,17.46
2023-03-22T10:37:14.748Z,17.97
2023-03-22T10:38:56.177Z,18.23
2023-03-22T10:40:37.560Z,17.90
2023-03-22T10:42:18.841Z,18.30
2023-03-22T10:44:00.144Z,18.60
2023-03-22T10:45:41.776Z,18.88
2023-03-22T10:47:23.320Z,19.22
2023-03-22T10:49:04.610Z,19.36
2023-03-22T10:50:45.934Z,19.68
2023-03-22T10:52:27.253Z,19.85
2023-03-22T10:54:08.580Z,20.06
2023-03-22T10:55:49.890Z,19.72
2023-03-22T10:57:31.349Z,19.52
2023-03-22T10:59:12.746Z,19.49
2023-03-22T11:00:54.198Z,19.37
2023-03-22T11:02:35.634Z,19.96
2023-03-22T11:04:17.006Z,19.88
2023-03-22T11:05:58.347Z,19.57
2023-03-22T11:07:39.660Z,19.38
2023-03-22T11:09:20.962Z,18.99
2023-03-22T11:11:02.306Z,19.11
2023-03-22T11:12:43.622Z,19.53
2023-03-22T11:14:24.944Z,19.72
2023-03-22T11:16:06.330Z,19.77
2023-03-22T11:17:47.651Z,19.55
2023-03-22T11:19:28.947Z,19.23
2023-03-22T11:21:10.275Z,19.24
2023-03-22T11:22:51.553Z,18.60
2023-03-22T11:24:32.914Z,18.21
2023-03-22T11:26:14.315Z,17.83
2023-03-22T11:27:55.638Z,16.80
2023-03-22T11:29:36.975Z,17.12
2023-03-22T11:31:19.078Z,16.78
2023-03-22T11:33:00.719Z,16.91
2023-03-22T11:34:42.074Z,16.37
2023-03-22T11:36:23.378Z,16.17
2023-03-22T11:38:05.000Z,16.00
2023-03-22T11:39:46.490Z,14.71
2023-03-22T11:41:27.838Z,14.78
2023-03-22T11:43:09.171Z,15.05
2023-03-22T11:44:50.563Z,15.69
2023-03-22T11:46:32.035Z,15.85
2023-03-22T11:48:13.629Z,16.25
2023-03-22T11:49:54.981Z,16.16
2023-03-22T11:51:36.306Z,16.40
2023-03-22T11:53:17.603Z,16.48
2023-03-22T11:54:58.917Z,16.04
2023-03-22T11:56:40.315Z,16.84
2023-03-22T11:58:23.589Z,16.69
2023-03-22T12:00:05.344Z,16.86
2023-03-22T12:01:46.747Z,16.43
2023-03-22T12:03:28.099Z,16.56
2023-03-22T12:05:09.642Z,16.28
2023-03-22T12:06:50.999Z,16.69
2023-03-22T12:08:32.321Z,17.31
2023-03-22T12:10:13.614Z,17.75
2023-03-22T12:11:54.964Z,18.05
2023-03-22T12:13:36.341Z,18.42
2023-03-22T12:15:17.644Z,19.08
2023-03-22T12:16:58.967Z,19.27
2023-03-22T12:18:40.260Z,18.98
2023-03-22T12:20:21.580Z,19.45
2023-03-22T12:22:02.898Z,19.59
2023-03-22T12:23:44.312Z,19.62
2023-03-22T12:25:25.677Z,19.87
2023-03-22T12:27:07.033Z,20.20
2023-03-22T12:28:48.347Z,20.85
2023-03-22T12:30:29.647Z,20.91
2023-03-22T12:32:10.967Z,20.75
2023-03-22T12:33:52.331Z,20.71
2023-03-22T12:35:33.668Z,20.64
2023-03-22T12:37:15.007Z,19.94
2023-03-22T12:38:56.623Z,20.42
2023-03-22T12:40:38.427Z,19.70
2023-03-22T12:42:20.005Z,19.07
2023-03-22T12:44:01.310Z,18.88
2023-03-22T12:45:42.819Z,18.91
2023-03-22T12:47:24.338Z,19.13
2023-03-22T12:49:05.784Z,18.87
2023-03-22T12:50:47.216Z,19.07
2023-03-22T12:52:34.712Z,18.74
2023-03-22T12:54:22.484Z,18.30
2023-03-22T12:56:03.788Z,17.56
2023-03-22T12:57:45.167Z,17.21
2023-03-22T12:59:26.616Z,17.29
2023-03-22T13:01:07.969Z,17.70
2023-03-22T13:02:49.358Z,18.28
2023-03-22T13:04:30.657Z,18.46
2023-03-22T13:06:11.968Z,18.30
2023-03-22T13:07:53.291Z,18.68
2023-03-22T13:09:34.585Z,18.98
2023-03-22T13:11:15.987Z,19.24
2023-03-22T13:12:57.316Z,18.43
2023-03-22T13:14:39.000Z,18.96
2023-03-22T13:16:20.400Z,19.33
2023-03-22T13:18:01.811Z,18.60
2023-03-22T13:19:43.112Z,19.04
2023-03-22T13:21:24.429Z,18.46
2023-03-22T13:23:08.277Z,16.86
2023-03-22T13:24:49.553Z,16.27
2023-03-22T13:26:30.853Z,15.88
2023-03-22T13:28:12.204Z,16.14
2023-03-22T13:29:53.488Z,15.67
2023-03-22T13:31:34.848Z,14.89
2023-03-22T13:33:16.277Z,15.83
2023-03-22T13:34:57.640Z,16.33
2023-03-22T13:36:38.905Z,15.90
2023-03-22T13:38:20.236Z,16.73
2023-03-22T13:40:01.587Z,16.31
2023-03-22T13:41:42.883Z,15.69
2023-03-22T13:43:24.209Z,14.54
2023-03-22T13:45:05.482Z,13.97
2023-03-22T13:46:46.886Z,14.55
2023-03-22T13:48:28.353Z,14.70
2023-03-22T13:50:09.677Z,15.20
2023-03-22T13:51:51.066Z,15.45
2023-03-22T13:53:32.342Z,16.05
2023-03-22T13:55:13.658Z,16.05
2023-03-22T13:56:55.008Z,15.94
2023-03-22T13:58:36.461Z,15.28
2023-03-22T14:00:20.280Z,16.45
2023-03-22T14:02:02.092Z,16.75
2023-03-22T14:03:43.506Z,17.19
2023-03-22T14:05:24.895Z,17.84
2023-03-22T14:07:06.187Z,17.50
2023-03-22T14:08:47.516Z,17.64
2023-03-22T14:10:28.857Z,17.71
2023-03-22T14:12:10.235Z,17.60
2023-03-22T14:13:51.572Z,18.22
2023-03-22T14:15:32.929Z,18.42
2023-03-22T14:17:14.496Z,18.53
2023-03-22T14:18:55.817Z,18.45
2023-03-22T14:20:39.521Z,18.55
